sensor_id;sensor_type;location;lat;lon;timestamp;pressure;altitude;pressure_sealevel;temperature;humidity
11198;BME280;5655;48.744;9.162;2023-05-03T00:00:55;96850.19;;;11.01;100.00
11198;BME280;5655;48.744;9.162;2023-05-03T00:03:24;96856.81;;;11.07;100.00
11198;BME280;5655;48.744;9.162;2023-05-03T00:05:49;96862.88;;;11.23;100.00
11198;BME280;5655;48.744;9.162;2023-05-03T00:08:15;96871.78;;;11.50;100.00
11198;BME280;5655;48.744;9.162;2023-05-03T00:10:40;96873.59;;;11.23;100.00
11198;BME280;5655;48.744;9.162;2023-05-03T00:13:06;96871.75;;;11.27;100.00
11198;BME280;5655;48.744;9.162;2023-05-03T00:15:32;96866.66;;;11.22;100.00
11198;BME280;5655;48.744;9.162;2023-05-03T00:17:57;96869.06;;;11.27;100.00
11198;BME280;5655;48.744;9.162;2023-05-03T00:20:22;96870.75;;;11.35;100.00
11198;BME280;5655;48.744;9.162;2023-05-03T00:22:49;96860.47;;;11.18;100.00
11198;BME280;5655;48.744;9.162;2023-05-03T00:25:14;96874.44;;;11.27;100.00
11198;BME280;5655;48.744;9.162;2023-05-03T00:27:39;96860.47;;;11.18;100.00
11198;BME280;5655;48.744;9.162;2023-05-03T00:30:05;96871.53;;;11.36;100.00
11198;BME280;5655;48.744;9.162;2023-05-03T00:32:31;96869.06;;;11.27;100.00
11198;BME280;5655;48.744;9.162;2023-05-03T00:34:57;96857.88;;;11.03;100.00
11198;BME280;5655;48.744;9.162;2023-05-03T00:37:23;96862.88;;;11.04;100.00
11198;BME280;5655;48.744;9.162;2023-05-03T00:39:49;96853.84;;;10.93;100.00
11198;BME280;5655;48.744;9.162;2023-05-03T00:42:14;96860.06;;;10.97;100.00
11198;BME280;5655;48.744;9.162;2023-05-03T00:44:39;96856.53;;;10.93;100.00
11198;BME280;5655;48.744;9.162;2023-05-03T00:47:05;96849.19;;;10.71;100.00
11198;BME280;5655;48.744;9.162;2023-05-03T00:49:31;96844.25;;;10.73;100.00
11198;BME280;5655;48.744;9.162;2023-05-03T00:51:57;96838.88;;;10.54;100.00
11198;BME280;5655;48.744;9.162;2023-05-03T00:54:25;96837.34;;;10.53;100.00
11198;BME280;5655;48.744;9.162;2023-05-03T00:56:50;96823.66;;;10.38;100.00
11198;BME280;5655;48.744;9.162;2023-05-03T00:59:17;96824.66;;;10.50;100.00
11198;BME280;5655;48.744;9.162;2023-05-03T01:01:42;96826.91;;;10.48;100.00
11198;BME280;5655;48.744;9.162;2023-05-03T01:04:07;96825.44;;;10.50;100.00
11198;BME280;5655;48.744;9.162;2023-05-03T01:09:15;96837.59;;;10.82;100.00
11198;BME280;5655;48.744;9.162;2023-05-03T01:14:32;96840.72;;;10.88;100.00
11198;BME280;5655;48.744;9.162;2023-05-03T01:17:13;96831.44;;;10.82;100.00
11198;BME280;5655;48.744;9.162;2023-05-03T01:19:50;96829.59;;;10.67;100.00
11198;BME280;5655;48.744;9.162;2023-05-03T01:25:06;96845.19;;;10.80;100.00
11198;BME280;5655;48.744;9.162;2023-05-03T01:27:32;96841.31;;;10.78;100.00
11198;BME280;5655;48.744;9.162;2023-05-03T01:29:57;96831.44;;;10.82;100.00
11198;BME280;5655;48.744;9.162;2023-05-03T01:32:31;96827.50;;;10.95;100.00
11198;BME280;5655;48.744;9.162;2023-05-03T01:37:26;96818.47;;;10.65;100.00
11198;BME280;5655;48.744;9.162;2023-05-03T01:39:58;96813.41;;;10.60;100.00
11198;BME280;5655;48.744;9.162;2023-05-03T01:42:24;96806.88;;;10.41;100.00
11198;BME280;5655;48.744;9.162;2023-05-03T01:44:52;96815.72;;;10.61;100.00
11198;BME280;5655;48.744;9.162;2023-05-03T01:47:18;96812.19;;;10.57;100.00
11198;BME280;5655;48.744;9.162;2023-05-03T01:49:43;96805.91;;;10.30;100.00
11198;BME280;5655;48.744;9.162;2023-05-03T01:52:08;96814.72;;;10.50;100.00
11198;BME280;5655;48.744;9.162;2023-05-03T01:54:34;96815.44;;;10.47;100.00
11198;BME280;5655;48.744;9.162;2023-05-03T01:56:59;96815.09;;;10.68;100.00
11198;BME280;5655;48.744;9.162;2023-05-03T01:59:25;96820.09;;;10.69;100.00
11198;BME280;5655;48.744;9.162;2023-05-03T02:01:51;96807.75;;;10.45;100.00
11198;BME280;5655;48.744;9.162;2023-05-03T02:04:16;96807.75;;;10.45;100.00
11198;BME280;5655;48.744;9.162;2023-05-03T02:06:41;96812.38;;;10.48;100.00
11198;BME280;5655;48.744;9.162;2023-05-03T02:09:06;96806.03;;;10.37;100.00
11198;BME280;5655;48.744;9.162;2023-05-03T02:11:32;96815.19;;;10.36;100.00
11198;BME280;5655;48.744;9.162;2023-05-03T02:13:57;96802.34;;;10.11;100.00
11198;BME280;5655;48.744;9.162;2023-05-03T02:16:23;96809.69;;;10.29;100.00
11198;BME280;5655;48.744;9.162;2023-05-03T02:18:48;96807.22;;;10.05;100.00
11198;BME280;5655;48.744;9.162;2023-05-03T02:21:13;96804.81;;;10.00;100.00
11198;BME280;5655;48.744;9.162;2023-05-03T02:23:39;96798.78;;;9.87;100.00
11198;BME280;5655;48.744;9.162;2023-05-03T02:26:04;96798.69;;;9.99;100.00
11198;BME280;5655;48.744;9.162;2023-05-03T02:28:29;96794.03;;;9.81;100.00
11198;BME280;5655;48.744;9.162;2023-05-03T02:30:55;96796.09;;;10.03;100.00
11198;BME280;5655;48.744;9.162;2023-05-03T02:33:20;96793.94;;;10.09;100.00
11198;BME280;5655;48.744;9.162;2023-05-03T02:35:46;96803.09;;;9.92;100.00
11198;BME280;5655;48.744;9.162;2023-05-03T02:38:11;96790.50;;;9.77;100.00
11198;BME280;5655;48.744;9.162;2023-05-03T02:40:36;96792.78;;;9.75;100.00
11198;BME280;5655;48.744;9.162;2023-05-03T02:43:02;96786.81;;;9.66;100.00
11198;BME280;5655;48.744;9.162;2023-05-03T02:45:28;96788.94;;;9.76;100.00
11198;BME280;5655;48.744;9.162;2023-05-03T02:47:53;96789.81;;;9.95;100.00
11198;BME280;5655;48.744;9.162;2023-05-03T02:50:18;96793.53;;;9.91;100.00
11198;BME280;5655;48.744;9.162;2023-05-03T02:52:44;96795.59;;;9.82;100.00
11198;BME280;5655;48.744;9.162;2023-05-03T02:55:09;96791.81;;;9.83;100.00
11198;BME280;5655;48.744;9.162;2023-05-03T02:57:34;96793.03;;;9.70;100.00
11198;BME280;5655;48.744;9.162;2023-05-03T03:00:00;96780.94;;;9.60;100.00
11198;BME280;5655;48.744;9.162;2023-05-03T03:02:25;96787.22;;;9.68;100.00
11198;BME280;5655;48.744;9.162;2023-05-03T03:04:51;96790.34;;;9.70;100.00
11198;BME280;5655;48.744;9.162;2023-05-03T03:07:16;96797.31;;;9.58;100.00
11198;BME280;5655;48.744;9.162;2023-05-03T03:09:41;96782.75;;;9.56;100.00
11198;BME280;5655;48.744;9.162;2023-05-03T03:12:06;96787.25;;;9.52;100.00
11198;BME280;5655;48.744;9.162;2023-05-03T03:14:32;96798.19;;;9.63;100.00
11198;BME280;5655;48.744;9.162;2023-05-03T03:16:57;96795.44;;;9.75;100.00
11198;BME280;5655;48.744;9.162;2023-05-03T03:19:22;96784.56;;;9.68;100.00
11198;BME280;5655;48.744;9.162;2023-05-03T03:21:48;96795.66;;;9.85;100.00
11198;BME280;5655;48.744;9.162;2023-05-03T03:24:13;96783.28;;;9.62;100.00
11198;BME280;5655;48.744;9.162;2023-05-03T03:26:39;96783.81;;;9.36;100.00
11198;BME280;5655;48.744;9.162;2023-05-03T03:29:05;96784.41;;;9.61;100.00
11198;BME280;5655;48.744;9.162;2023-05-03T03:31:30;96799.53;;;10.03;100.00
11198;BME280;5655;48.744;9.162;2023-05-03T03:33:56;96794.91;;;9.85;100.00
11198;BME280;5655;48.744;9.162;2023-05-03T03:36:21;96787.25;;;9.52;100.00
11198;BME280;5655;48.744;9.162;2023-05-03T03:38:46;96789.56;;;9.53;100.00
11198;BME280;5655;48.744;9.162;2023-05-03T03:41:12;96792.66;;;9.55;100.00
11198;BME280;5655;48.744;9.162;2023-05-03T03:43:37;96782.03;;;9.28;100.00
11198;BME280;5655;48.744;9.162;2023-05-03T03:46:02;96784.56;;;9.36;100.00
11198;BME280;5655;48.744;9.162;2023-05-03T03:48:28;96787.03;;;9.14;100.00
11198;BME280;5655;48.744;9.162;2023-05-03T03:50:53;96787.19;;;9.05;100.00
11198;BME280;5655;48.744;9.162;2023-05-03T03:53:18;96800.53;;;9.48;100.00
11198;BME280;5655;48.744;9.162;2023-05-03T03:55:44;96800.34;;;9.41;100.00
11198;BME280;5655;48.744;9.162;2023-05-03T03:58:09;96799.78;;;9.20;100.00
11198;BME280;5655;48.744;9.162;2023-05-03T04:00:35;96799.91;;;9.39;100.00
11198;BME280;5655;48.744;9.162;2023-05-03T04:03:00;96800.75;;;9.28;100.00
11198;BME280;5655;48.744;9.162;2023-05-03T04:05:26;96794.03;;;8.90;100.00
11198;BME280;5655;48.744;9.162;2023-05-03T04:07:51;96807.53;;;9.09;100.00
11198;BME280;5655;48.744;9.162;2023-05-03T04:10:17;96801.34;;;9.05;100.00
11198;BME280;5655;48.744;9.162;2023-05-03T04:12:42;96805.19;;;9.08;100.00
11198;BME280;5655;48.744;9.162;2023-05-03T04:15:08;96809.06;;;9.10;100.00
11198;BME280;5655;48.744;9.162;2023-05-03T04:17:33;96801.66;;;9.04;100.00
11198;BME280;5655;48.744;9.162;2023-05-03T04:20:00;96813.38;;;9.15;100.00
11198;BME280;5655;48.744;9.162;2023-05-03T04:22:28;96814.53;;;9.14;100.00
11198;BME280;5655;48.744;9.162;2023-05-03T04:24:55;96813.75;;;8.86;100.00
11198;BME280;5655;48.744;9.162;2023-05-03T04:27:20;96823.19;;;8.95;100.00
11198;BME280;5655;48.744;9.162;2023-05-03T04:29:45;96825.59;;;9.00;100.00
11198;BME280;5655;48.744;9.162;2023-05-03T04:32:13;96819.31;;;8.93;100.00
11198;BME280;5655;48.744;9.162;2023-05-03T04:34:38;96831.03;;;9.04;100.00
11198;BME280;5655;48.744;9.162;2023-05-03T04:37:03;96826.63;;;8.96;100.00
11198;BME280;5655;48.744;9.162;2023-05-03T04:39:29;96835.69;;;9.07;100.00
11198;BME280;5655;48.744;9.162;2023-05-03T04:41:56;96829.75;;;8.86;100.00
11198;BME280;5655;48.744;9.162;2023-05-03T04:44:22;96822.69;;;8.78;100.00
11198;BME280;5655;48.744;9.162;2023-05-03T04:46:47;96820.00;;;8.78;100.00
11198;BME280;5655;48.744;9.162;2023-05-03T04:49:13;96829.06;;;8.89;100.00
11198;BME280;5655;48.744;9.162;2023-05-03T04:51:39;96828.50;;;8.95;100.00
11198;BME280;5655;48.744;9.162;2023-05-03T04:54:04;96820.78;;;8.78;100.00
11198;BME280;5655;48.744;9.162;2023-05-03T04:56:30;96823.31;;;8.87;100.00
11198;BME280;5655;48.744;9.162;2023-05-03T04:58:55;96834.63;;;8.96;100.00
11198;BME280;5655;48.744;9.162;2023-05-03T05:01:21;96836.19;;;8.97;100.00
11198;BME280;5655;48.744;9.162;2023-05-03T05:03:51;96832.59;;;9.05;100.00
11198;BME280;5655;48.744;9.162;2023-05-03T05:06:16;96836.22;;;8.85;100.00
11198;BME280;5655;48.744;9.162;2023-05-03T05:08:42;96829.19;;;8.92;100.00
11198;BME280;5655;48.744;9.162;2023-05-03T05:11:07;96845.78;;;9.14;100.00
11198;BME280;5655;48.744;9.162;2023-05-03T05:13:34;96833.50;;;9.25;100.00
11198;BME280;5655;48.744;9.162;2023-05-03T05:15:59;96823.47;;;9.06;100.00
11198;BME280;5655;48.744;9.162;2023-05-03T05:18:25;96832.59;;;9.05;100.00
11198;BME280;5655;48.744;9.162;2023-05-03T05:20:50;96835.91;;;9.14;100.00
11198;BME280;5655;48.744;9.162;2023-05-03T05:23:15;96842.63;;;8.96;100.00
11198;BME280;5655;48.744;9.162;2023-05-03T05:25:41;96845.88;;;8.89;100.00
11198;BME280;5655;48.744;9.162;2023-05-03T05:28:06;96835.97;;;8.90;100.00
11198;BME280;5655;48.744;9.162;2023-05-03T05:30:31;96841.03;;;9.07;100.00
11198;BME280;5655;48.744;9.162;2023-05-03T05:32:57;96850.44;;;9.44;100.00
11198;BME280;5655;48.744;9.162;2023-05-03T05:35:22;96855.44;;;9.62;100.00
11198;BME280;5655;48.744;9.162;2023-05-03T05:37:48;96857.50;;;9.52;100.00
11198;BME280;5655;48.744;9.162;2023-05-03T05:40:13;96868.53;;;9.67;100.00
11198;BME280;5655;48.744;9.162;2023-05-03T05:42:39;96864.50;;;9.57;100.00
11198;BME280;5655;48.744;9.162;2023-05-03T05:45:05;96862.94;;;9.72;100.00
11198;BME280;5655;48.744;9.162;2023-05-03T05:47:31;96859.69;;;9.78;100.00
11198;BME280;5655;48.744;9.162;2023-05-03T05:49:57;96856.13;;;9.74;100.00
11198;BME280;5655;48.744;9.162;2023-05-03T05:52:22;96858.53;;;9.95;100.00
11198;BME280;5655;48.744;9.162;2023-05-03T05:54:47;96869.47;;;10.06;100.00
11198;BME280;5655;48.744;9.162;2023-05-03T05:57:13;96868.22;;;10.15;100.00
11198;BME280;5655;48.744;9.162;2023-05-03T05:59:38;96869.66;;;10.28;100.00
11198;BME280;5655;48.744;9.162;2023-05-03T06:02:12;96870.38;;;10.25;100.00
11198;BME280;5655;48.744;9.162;2023-05-03T06:04:38;96870.38;;;10.25;100.00
11198;BME280;5655;48.744;9.162;2023-05-03T06:07:03;96861.78;;;10.51;100.00
11198;BME280;5655;48.744;9.162;2023-05-03T06:09:28;96872.28;;;10.60;100.00
11198;BME280;5655;48.744;9.162;2023-05-03T06:11:54;96872.13;;;10.53;100.00
11198;BME280;5655;48.744;9.162;2023-05-03T06:14:19;96869.75;;;10.67;100.00
11198;BME280;5655;48.744;9.162;2023-05-03T06:16:45;96866.34;;;10.51;100.00
11198;BME280;5655;48.744;9.162;2023-05-03T06:19:10;96867.16;;;10.35;100.00
11198;BME280;5655;48.744;9.162;2023-05-03T06:21:36;96872.03;;;10.49;100.00
11198;BME280;5655;48.744;9.162;2023-05-03T06:24:01;96869.72;;;10.48;100.00
11198;BME280;5655;48.744;9.162;2023-05-03T06:26:26;96864.97;;;10.57;100.00
11198;BME280;5655;48.744;9.162;2023-05-03T06:28:52;96868.38;;;10.57;100.00
11198;BME280;5655;48.744;9.162;2023-05-03T06:31:17;96881.34;;;10.90;100.00
11198;BME280;5655;48.744;9.162;2023-05-03T06:33:42;96860.88;;;10.28;100.00
11198;BME280;5655;48.744;9.162;2023-05-03T06:36:08;96877.38;;;10.84;100.00
11198;BME280;5655;48.744;9.162;2023-05-03T06:38:34;96873.72;;;10.73;100.00
11198;BME280;5655;48.744;9.162;2023-05-03T06:40:59;96879.50;;;10.94;100.00
11198;BME280;5655;48.744;9.162;2023-05-03T06:43:24;96879.03;;;11.08;100.00
11198;BME280;5655;48.744;9.162;2023-05-03T06:45:50;96892.25;;;11.39;100.00
11198;BME280;5655;48.744;9.162;2023-05-03T06:48:17;96884.03;;;11.28;100.00
11198;BME280;5655;48.744;9.162;2023-05-03T06:50:42;96887.13;;;11.11;100.00
11198;BME280;5655;48.744;9.162;2023-05-03T06:53:07;96892.06;;;11.28;100.00
11198;BME280;5655;48.744;9.162;2023-05-03T06:55:33;96898.63;;;11.12;100.00
11198;BME280;5655;48.744;9.162;2023-05-03T06:57:58;96906.41;;;11.59;100.00
11198;BME280;5655;48.744;9.162;2023-05-03T07:00:24;96905.06;;;11.68;100.00
11198;BME280;5655;48.744;9.162;2023-05-03T07:02:50;96895.44;;;11.45;100.00
11198;BME280;5655;48.744;9.162;2023-05-03T07:05:15;96898.09;;;11.64;100.00
11198;BME280;5655;48.744;9.162;2023-05-03T07:07:41;96893.50;;;11.64;100.00
11198;BME280;5655;48.744;9.162;2023-05-03T07:10:06;96890.03;;;11.64;100.00
11198;BME280;5655;48.744;9.162;2023-05-03T07:12:32;96885.88;;;11.66;100.00
11198;BME280;5655;48.744;9.162;2023-05-03T07:14:57;96882.13;;;11.71;100.00
11198;BME280;5655;48.744;9.162;2023-05-03T07:17:23;96885.38;;;11.80;100.00
11198;BME280;5655;48.744;9.162;2023-05-03T07:19:50;96885.47;;;11.87;100.00
11198;BME280;5655;48.744;9.162;2023-05-03T07:22:15;96885.63;;;11.94;100.00
11198;BME280;5655;48.744;9.162;2023-05-03T07:24:41;96883.22;;;11.89;100.00
11198;BME280;5655;48.744;9.162;2023-05-03T07:27:06;96870.47;;;12.05;100.00
11198;BME280;5655;48.744;9.162;2023-05-03T07:29:32;96874.88;;;12.43;100.00
11198;BME280;5655;48.744;9.162;2023-05-03T07:31:57;96887.25;;;12.51;100.00
11198;BME280;5655;48.744;9.162;2023-05-03T07:34:23;96878.44;;;12.51;100.00
11198;BME280;5655;48.744;9.162;2023-05-03T07:36:48;96885.19;;;12.67;100.00
11198;BME280;5655;48.744;9.162;2023-05-03T07:39:14;96879.78;;;12.38;100.00
11198;BME280;5655;48.744;9.162;2023-05-03T07:41:39;96879.00;;;12.63;100.00
11198;BME280;5655;48.744;9.162;2023-05-03T07:44:05;96886.50;;;13.07;100.00
11198;BME280;5655;48.744;9.162;2023-05-03T07:46:30;96888.97;;;13.19;100.00
11198;BME280;5655;48.744;9.162;2023-05-03T07:48:59;96889.16;;;13.37;100.00
11198;BME280;5655;48.744;9.162;2023-05-03T07:51:25;96896.22;;;13.52;100.00
11198;BME280;5655;48.744;9.162;2023-05-03T07:53:50;96899.75;;;13.96;100.00
11198;BME280;5655;48.744;9.162;2023-05-03T07:56:16;96897.81;;;13.93;100.00
11198;BME280;5655;48.744;9.162;2023-05-03T07:58:41;96898.84;;;13.82;100.00
11198;BME280;5655;48.744;9.162;2023-05-03T08:01:06;96891.97;;;13.84;100.00
11198;BME280;5655;48.744;9.162;2023-05-03T08:03:32;96894.38;;;13.96;100.00
11198;BME280;5655;48.744;9.162;2023-05-03T08:05:57;96891.53;;;13.79;100.00
11198;BME280;5655;48.744;9.162;2023-05-03T08:08:22;96902.16;;;14.08;100.00
11198;BME280;5655;48.744;9.162;2023-05-03T08:10:50;96902.22;;;14.16;100.00
11198;BME280;5655;48.744;9.162;2023-05-03T08:13:16;96897.88;;;14.48;100.00
11198;BME280;5655;48.744;9.162;2023-05-03T08:15:41;96901.69;;;14.40;100.00
11198;BME280;5655;48.744;9.162;2023-05-03T08:18:07;96887.88;;;14.45;100.00
11198;BME280;5655;48.744;9.162;2023-05-03T08:20:32;96903.63;;;14.46;100.00
11198;BME280;5655;48.744;9.162;2023-05-03T08:23:01;96912.50;;;14.47;100.00
11198;BME280;5655;48.744;9.162;2023-05-03T08:25:26;96895.56;;;14.02;100.00
11198;BME280;5655;48.744;9.162;2023-05-03T08:27:52;96896.84;;;14.16;100.00
11198;BME280;5655;48.744;9.162;2023-05-03T08:30:19;96900.16;;;14.46;100.00
11198;BME280;5655;48.744;9.162;2023-05-03T08:32:46;96900.06;;;14.32;100.00
11198;BME280;5655;48.744;9.162;2023-05-03T08:35:11;96907.06;;;14.36;100.00
11198;BME280;5655;48.744;9.162;2023-05-03T08:37:40;96902.22;;;14.63;100.00
11198;BME280;5655;48.744;9.162;2023-05-03T08:40:07;96912.31;;;14.26;100.00
11198;BME280;5655;48.744;9.162;2023-05-03T08:42:37;96906.34;;;14.50;100.00
11198;BME280;5655;48.744;9.162;2023-05-03T08:45:03;96905.63;;;14.53;100.00
11198;BME280;5655;48.744;9.162;2023-05-03T08:47:28;96903.25;;;14.41;100.00
11198;BME280;5655;48.744;9.162;2023-05-03T08:49:57;96910.66;;;14.58;100.00
11198;BME280;5655;48.744;9.162;2023-05-03T08:52:23;96904.06;;;14.52;100.00
11198;BME280;5655;48.744;9.162;2023-05-03T08:54:48;96904.66;;;14.28;100.00
11198;BME280;5655;48.744;9.162;2023-05-03T08:57:15;96908.56;;;14.92;100.00
11198;BME280;5655;48.744;9.162;2023-05-03T08:59:47;96906.69;;;15.03;100.00
11198;BME280;5655;48.744;9.162;2023-05-03T09:02:14;96907.84;;;14.40;100.00
11198;BME280;5655;48.744;9.162;2023-05-03T09:04:39;96917.44;;;14.92;100.00
11198;BME280;5655;48.744;9.162;2023-05-03T09:07:09;96926.50;;;15.46;100.00
11198;BME280;5655;48.744;9.162;2023-05-03T09:09:35;96921.03;;;15.25;100.00
11198;BME280;5655;48.744;9.162;2023-05-03T09:12:00;96924.84;;;15.17;100.00
11198;BME280;5655;48.744;9.162;2023-05-03T09:14:26;96916.09;;;15.41;100.00
11198;BME280;5655;48.744;9.162;2023-05-03T09:16:51;96922.19;;;15.24;100.00
11198;BME280;5655;48.744;9.162;2023-05-03T09:19:16;96926.75;;;15.06;100.00
11198;BME280;5655;48.744;9.162;2023-05-03T09:21:43;96932.25;;;15.34;100.00
11198;BME280;5655;48.744;9.162;2023-05-03T09:24:17;96924.63;;;15.54;100.00
11198;BME280;5655;48.744;9.162;2023-05-03T09:26:44;96919.19;;;15.47;100.00
11198;BME280;5655;48.744;9.162;2023-05-03T09:29:26;96924.00;;;16.38;100.00
11198;BME280;5655;48.744;9.162;2023-05-03T09:32:03;96923.22;;;16.48;100.00
11198;BME280;5655;48.744;9.162;2023-05-03T09:34:34;96921.69;;;16.33;100.00
11198;BME280;5655;48.744;9.162;2023-05-03T09:37:02;96917.06;;;16.09;100.00
11198;BME280;5655;48.744;9.162;2023-05-03T09:39:28;96915.88;;;16.03;100.00
11198;BME280;5655;48.744;9.162;2023-05-03T09:41:53;96920.91;;;16.36;100.00
11198;BME280;5655;48.744;9.162;2023-05-03T09:44:19;96908.53;;;15.85;100.00
11198;BME280;5655;48.744;9.162;2023-05-03T09:47:03;96922.84;;;16.21;100.00
11198;BME280;5655;48.744;9.162;2023-05-03T09:49:30;96915.91;;;16.45;100.00
11198;BME280;5655;48.744;9.162;2023-05-03T09:51:57;96919.00;;;16.47;100.00
11198;BME280;5655;48.744;9.162;2023-05-03T09:54:24;96914.72;;;16.53;100.00
11198;BME280;5655;48.744;9.162;2023-05-03T09:56:49;96902.75;;;16.83;100.00
11198;BME280;5655;48.744;9.162;2023-05-03T09:59:16;96912.31;;;17.19;100.00
11198;BME280;5655;48.744;9.162;2023-05-03T10:01:42;96923.34;;;17.56;100.00
11198;BME280;5655;48.744;9.162;2023-05-03T10:04:08;96919.53;;;17.43;100.00
11198;BME280;5655;48.744;9.162;2023-05-03T10:06:39;96911.84;;;18.11;100.00
11198;BME280;5655;48.744;9.162;2023-05-03T10:09:17;96910.22;;;17.62;100.00
11198;BME280;5655;48.744;9.162;2023-05-03T10:11:51;96907.53;;;17.51;100.00
11198;BME280;5655;48.744;9.162;2023-05-03T10:14:17;96910.78;;;17.11;100.00
11198;BME280;5655;48.744;9.162;2023-05-03T10:16:52;96905.28;;;17.36;100.00
11198;BME280;5655;48.744;9.162;2023-05-03T10:19:23;96906.06;;;17.36;100.00
11198;BME280;5655;48.744;9.162;2023-05-03T10:24:32;96898.13;;;17.81;100.00
11198;BME280;5655;48.744;9.162;2023-05-03T10:26:58;96904.25;;;17.88;100.00
11198;BME280;5655;48.744;9.162;2023-05-03T10:32:05;96895.44;;;18.32;100.00
11198;BME280;5655;48.744;9.162;2023-05-03T10:35:13;96891.03;;;18.52;100.00
11198;BME280;5655;48.744;9.162;2023-05-03T10:37:40;96891.31;;;19.02;100.00
11198;BME280;5655;48.744;9.162;2023-05-03T10:40:08;96886.78;;;19.23;100.00
11198;BME280;5655;48.744;9.162;2023-05-03T10:42:35;96893.69;;;18.97;100.00
11198;BME280;5655;48.744;9.162;2023-05-03T10:45:01;96887.56;;;18.45;100.00
11198;BME280;5655;48.744;9.162;2023-05-03T10:47:28;96883.91;;;18.66;100.00
11198;BME280;5655;48.744;9.162;2023-05-03T10:57:39;96884.56;;;18.36;100.00
11198;BME280;5655;48.744;9.162;2023-05-03T11:00:13;96889.81;;;18.98;100.00
11198;BME280;5655;48.744;9.162;2023-05-03T11:05:29;96880.78;;;20.22;100.00
11198;BME280;5655;48.744;9.162;2023-05-03T11:10:32;96876.06;;;20.26;100.00
11198;BME280;5655;48.744;9.162;2023-05-03T11:12:58;96873.00;;;20.48;100.00
11198;BME280;5655;48.744;9.162;2023-05-03T11:15:23;96866.56;;;20.11;100.00
11198;BME280;5655;48.744;9.162;2023-05-03T11:17:48;96864.91;;;20.87;100.00
11198;BME280;5655;48.744;9.162;2023-05-03T11:20:14;96859.28;;;21.17;100.00
11198;BME280;5655;48.744;9.162;2023-05-03T11:22:39;96851.16;;;20.94;100.00
11198;BME280;5655;48.744;9.162;2023-05-03T11:25:05;96840.59;;;20.76;100.00
11198;BME280;5655;48.744;9.162;2023-05-03T11:27:31;96850.53;;;21.46;100.00
11198;BME280;5655;48.744;9.162;2023-05-03T11:29:56;96852.91;;;21.44;100.00
11198;BME280;5655;48.744;9.162;2023-05-03T11:32:27;96854.53;;;21.21;100.00
11198;BME280;5655;48.744;9.162;2023-05-03T11:34:52;96832.03;;;21.73;100.00
11198;BME280;5655;48.744;9.162;2023-05-03T11:37:18;96849.50;;;21.20;100.00
11198;BME280;5655;48.744;9.162;2023-05-03T11:39:43;96845.94;;;21.03;100.00
11198;BME280;5655;48.744;9.162;2023-05-03T11:42:08;96849.41;;;20.84;100.00
11198;BME280;5655;48.744;9.162;2023-05-03T11:44:34;96849.25;;;21.50;100.00
11198;BME280;5655;48.744;9.162;2023-05-03T11:47:02;96851.75;;;21.61;100.00
11198;BME280;5655;48.744;9.162;2023-05-03T11:49:27;96852.44;;;21.29;100.00
11198;BME280;5655;48.744;9.162;2023-05-03T11:51:53;96838.97;;;21.22;100.00
11198;BME280;5655;48.744;9.162;2023-05-03T11:54:18;96843.88;;;20.68;100.00
11198;BME280;5655;48.744;9.162;2023-05-03T11:56:43;96842.44;;;19.90;100.00
11198;BME280;5655;48.744;9.162;2023-05-03T11:59:09;96844.25;;;20.70;100.00
11198;BME280;5655;48.744;9.162;2023-05-03T12:01:35;96823.31;;;21.06;100.00
11198;BME280;5655;48.744;9.162;2023-05-03T12:04:02;96822.44;;;21.49;100.00
11198;BME280;5655;48.744;9.162;2023-05-03T12:06:30;96829.03;;;21.12;100.00
11198;BME280;5655;48.744;9.162;2023-05-03T12:08:57;96821.72;;;21.28;100.00
11198;BME280;5655;48.744;9.162;2023-05-03T12:11:23;96821.47;;;21.91;95.82
11198;BME280;5655;48.744;9.162;2023-05-03T12:13:59;96820.59;;;21.62;99.73
11198;BME280;5655;48.744;9.162;2023-05-03T12:16:26;96823.94;;;21.34;96.66
11198;BME280;5655;48.744;9.162;2023-05-03T12:18:56;96822.09;;;21.99;82.74
11198;BME280;5655;48.744;9.162;2023-05-03T12:21:42;96805.25;;;21.52;68.42
11198;BME280;5655;48.744;9.162;2023-05-03T12:24:08;96821.97;;;21.70;67.63
11198;BME280;5655;48.744;9.162;2023-05-03T12:26:33;96823.03;;;21.92;82.54
11198;BME280;5655;48.744;9.162;2023-05-03T12:28:59;96821.84;;;22.09;77.95
11198;BME280;5655;48.744;9.162;2023-05-03T12:31:24;96822.97;;;21.96;100.00
11198;BME280;5655;48.744;9.162;2023-05-03T12:33:49;96826.59;;;22.05;100.00
11198;BME280;5655;48.744;9.162;2023-05-03T12:36:14;96821.53;;;21.71;96.56
11198;BME280;5655;48.744;9.162;2023-05-03T12:38:40;96823.41;;;21.22;92.97
11198;BME280;5655;48.744;9.162;2023-05-03T12:41:05;96821.94;;;21.18;98.93
11198;BME280;5655;48.744;9.162;2023-05-03T12:43:31;96810.56;;;21.75;100.00
11198;BME280;5655;48.744;9.162;2023-05-03T12:45:56;96811.88;;;20.95;100.00
11198;BME280;5655;48.744;9.162;2023-05-03T12:48:23;96808.78;;;20.54;100.00
11198;BME280;5655;48.744;9.162;2023-05-03T12:50:49;96805.38;;;21.09;99.85
11198;BME280;5655;48.744;9.162;2023-05-03T12:53:14;96798.97;;;21.55;100.00
11198;BME280;5655;48.744;9.162;2023-05-03T12:55:40;96802.38;;;20.64;94.30
11198;BME280;5655;48.744;9.162;2023-05-03T12:58:06;96790.06;;;20.13;100.00
11198;BME280;5655;48.744;9.162;2023-05-03T13:00:31;96797.16;;;20.07;98.24
11198;BME280;5655;48.744;9.162;2023-05-03T13:02:57;96793.53;;;20.36;99.12
11198;BME280;5655;48.744;9.162;2023-05-03T13:05:22;96796.63;;;20.38;96.77
11198;BME280;5655;48.744;9.162;2023-05-03T13:07:47;96789.91;;;21.42;83.23
11198;BME280;5655;48.744;9.162;2023-05-03T13:10:13;96788.94;;;21.68;77.82
11198;BME280;5655;48.744;9.162;2023-05-03T13:12:38;96775.16;;;22.07;70.53
11198;BME280;5655;48.744;9.162;2023-05-03T13:15:04;96771.13;;;22.73;69.16
11198;BME280;5655;48.744;9.162;2023-05-03T13:17:30;96784.91;;;22.66;63.68
11198;BME280;5655;48.744;9.162;2023-05-03T13:19:56;96770.13;;;22.06;65.49
11198;BME280;5655;48.744;9.162;2023-05-03T13:22:21;96785.72;;;22.22;66.86
11198;BME280;5655;48.744;9.162;2023-05-03T13:24:47;96780.09;;;22.12;71.32
11198;BME280;5655;48.744;9.162;2023-05-03T13:27:13;96771.81;;;22.16;75.11
11198;BME280;5655;48.744;9.162;2023-05-03T13:29:39;96770.84;;;22.39;76.11